sensor_id;sensor_type;location;lat;lon;timestamp;temperature;humidity
7494;DHT22;3788;49.902;8.590;2023-08-21T00:00:07;24.60;99.90
7494;DHT22;3788;49.902;8.590;2023-08-21T00:02:34;24.60;99.90
7494;DHT22;3788;49.902;8.590;2023-08-21T00:05:03;24.50;99.90
7494;DHT22;3788;49.902;8.590;2023-08-21T00:07:29;24.50;99.90
7494;DHT22;3788;49.902;8.590;2023-08-21T00:09:56;24.50;99.90
7494;DHT22;3788;49.902;8.590;2023-08-21T00:12:23;24.50;99.90
7494;DHT22;3788;49.902;8.590;2023-08-21T00:14:49;24.40;99.90
7494;DHT22;3788;49.902;8.590;2023-08-21T00:17:16;24.40;99.90
7494;DHT22;3788;49.902;8.590;2023-08-21T00:19:43;24.40;99.90
7494;DHT22;3788;49.902;8.590;2023-08-21T00:22:11;24.40;99.90
7494;DHT22;3788;49.902;8.590;2023-08-21T00:24:37;24.30;99.90
7494;DHT22;3788;49.902;8.590;2023-08-21T00:27:04;24.30;99.90
7494;DHT22;3788;49.902;8.590;2023-08-21T00:29:31;24.30;99.90
7494;DHT22;3788;49.902;8.590;2023-08-21T00:31:57;24.30;99.90
7494;DHT22;3788;49.902;8.590;2023-08-21T00:34:24;24.20;99.90
7494;DHT22;3788;49.902;8.590;2023-08-21T00:36:51;24.20;99.90
7494;DHT22;3788;49.902;8.590;2023-08-21T00:39:19;24.20;99.90
7494;DHT22;3788;49.902;8.590;2023-08-21T00:41:45;24.20;99.90
7494;DHT22;3788;49.902;8.590;2023-08-21T00:44:12;24.10;99.90
7494;DHT22;3788;49.902;8.590;2023-08-21T00:46:39;24.10;99.90
7494;DHT22;3788;49.902;8.590;2023-08-21T00:49:06;24.10;99.90
7494;DHT22;3788;49.902;8.590;2023-08-21T00:51:32;24.00;99.90
7494;DHT22;3788;49.902;8.590;2023-08-21T00:53:59;24.00;99.90
7494;DHT22;3788;49.902;8.590;2023-08-21T00:56:28;24.00;99.90
7494;DHT22;3788;49.902;8.590;2023-08-21T00:58:54;24.00;99.90
7494;DHT22;3788;49.902;8.590;2023-08-21T01:01:24;23.90;99.90
7494;DHT22;3788;49.902;8.590;2023-08-21T01:03:51;23.90;99.90
7494;DHT22;3788;49.902;8.590;2023-08-21T01:06:18;23.90;99.90
7494;DHT22;3788;49.902;8.590;2023-08-21T01:08:57;23.90;99.90
7494;DHT22;3788;49.902;8.590;2023-08-21T01:11:33;23.90;99.90
7494;DHT22;3788;49.902;8.590;2023-08-21T01:14:08;23.80;99.90
7494;DHT22;3788;49.902;8.590;2023-08-21T01:16:39;23.80;99.90
7494;DHT22;3788;49.902;8.590;2023-08-21T01:19:12;23.80;99.90
7494;DHT22;3788;49.902;8.590;2023-08-21T01:21:41;23.80;99.90
7494;DHT22;3788;49.902;8.590;2023-08-21T01:24:09;23.80;99.90
7494;DHT22;3788;49.902;8.590;2023-08-21T01:26:35;23.70;99.90
7494;DHT22;3788;49.902;8.590;2023-08-21T01:29:02;23.70;99.90
7494;DHT22;3788;49.902;8.590;2023-08-21T01:31:32;23.70;99.90
7494;DHT22;3788;49.902;8.590;2023-08-21T01:34:04;23.70;99.90
7494;DHT22;3788;49.902;8.590;2023-08-21T01:36:33;23.70;99.90
7494;DHT22;3788;49.902;8.590;2023-08-21T01:39:01;23.70;99.90
7494;DHT22;3788;49.902;8.590;2023-08-21T01:41:29;23.70;99.90
7494;DHT22;3788;49.902;8.590;2023-08-21T01:43:56;23.70;99.90
7494;DHT22;3788;49.902;8.590;2023-08-21T01:46:23;23.60;99.90
7494;DHT22;3788;49.902;8.590;2023-08-21T01:48:49;23.60;99.90
7494;DHT22;3788;49.902;8.590;2023-08-21T01:51:16;23.60;99.90
7494;DHT22;3788;49.902;8.590;2023-08-21T01:53:43;23.60;99.90
7494;DHT22;3788;49.902;8.590;2023-08-21T01:56:10;23.60;99.90
7494;DHT22;3788;49.902;8.590;2023-08-21T01:58:38;23.50;99.90
7494;DHT22;3788;49.902;8.590;2023-08-21T02:01:05;23.50;99.90
7494;DHT22;3788;49.902;8.590;2023-08-21T02:03:31;23.50;99.90
7494;DHT22;3788;49.902;8.590;2023-08-21T02:05:58;23.40;99.90
7494;DHT22;3788;49.902;8.590;2023-08-21T02:08:30;23.40;99.90
7494;DHT22;3788;49.902;8.590;2023-08-21T02:10:56;23.30;99.90
7494;DHT22;3788;49.902;8.590;2023-08-21T02:13:23;23.30;99.90
7494;DHT22;3788;49.902;8.590;2023-08-21T02:15:51;23.30;99.90
7494;DHT22;3788;49.902;8.590;2023-08-21T02:18:18;23.20;99.90
7494;DHT22;3788;49.902;8.590;2023-08-21T02:20:46;23.10;99.90
7494;DHT22;3788;49.902;8.590;2023-08-21T02:23:13;23.10;99.90
7494;DHT22;3788;49.902;8.590;2023-08-21T02:25:40;23.10;99.90
7494;DHT22;3788;49.902;8.590;2023-08-21T02:28:07;23.10;99.90
7494;DHT22;3788;49.902;8.590;2023-08-21T02:30:34;23.00;99.90
7494;DHT22;3788;49.902;8.590;2023-08-21T02:33:02;23.00;99.90
7494;DHT22;3788;49.902;8.590;2023-08-21T02:35:29;23.00;99.90
7494;DHT22;3788;49.902;8.590;2023-08-21T02:37:55;23.00;99.90
7494;DHT22;3788;49.902;8.590;2023-08-21T02:40:22;22.90;99.90
7494;DHT22;3788;49.902;8.590;2023-08-21T02:42:49;22.90;99.90
7494;DHT22;3788;49.902;8.590;2023-08-21T02:45:16;22.90;99.90
7494;DHT22;3788;49.902;8.590;2023-08-21T02:47:44;22.80;99.90
7494;DHT22;3788;49.902;8.590;2023-08-21T02:50:12;22.80;99.90
7494;DHT22;3788;49.902;8.590;2023-08-21T02:52:39;22.80;99.90
7494;DHT22;3788;49.902;8.590;2023-08-21T02:55:06;22.80;99.90
7494;DHT22;3788;49.902;8.590;2023-08-21T02:57:33;22.70;99.90
7494;DHT22;3788;49.902;8.590;2023-08-21T03:00:00;22.70;99.90
7494;DHT22;3788;49.902;8.590;2023-08-21T03:02:27;22.70;99.90
7494;DHT22;3788;49.902;8.590;2023-08-21T03:04:53;22.70;99.90
7494;DHT22;3788;49.902;8.590;2023-08-21T03:07:21;22.70;99.90
7494;DHT22;3788;49.902;8.590;2023-08-21T03:09:49;22.70;99.90
7494;DHT22;3788;49.902;8.590;2023-08-21T03:12:17;22.60;99.90
7494;DHT22;3788;49.902;8.590;2023-08-21T03:14:43;22.60;99.90
7494;DHT22;3788;49.902;8.590;2023-08-21T03:17:10;22.60;99.90
7494;DHT22;3788;49.902;8.590;2023-08-21T03:19:37;22.60;99.90
7494;DHT22;3788;49.902;8.590;2023-08-21T03:22:03;22.60;99.90
7494;DHT22;3788;49.902;8.590;2023-08-21T03:24:31;22.60;99.90
7494;DHT22;3788;49.902;8.590;2023-08-21T03:26:58;22.50;99.90
7494;DHT22;3788;49.902;8.590;2023-08-21T03:29:25;22.50;99.90
7494;DHT22;3788;49.902;8.590;2023-08-21T03:31:52;22.50;99.90
7494;DHT22;3788;49.902;8.590;2023-08-21T03:34:19;22.50;99.90
7494;DHT22;3788;49.902;8.590;2023-08-21T03:36:46;22.40;99.90
7494;DHT22;3788;49.902;8.590;2023-08-21T03:39:12;22.40;99.90
7494;DHT22;3788;49.902;8.590;2023-08-21T03:41:40;22.40;99.90
7494;DHT22;3788;49.902;8.590;2023-08-21T03:44:07;22.40;99.90
7494;DHT22;3788;49.902;8.590;2023-08-21T03:46:34;22.30;99.90
7494;DHT22;3788;49.902;8.590;2023-08-21T03:49:00;22.30;99.90
7494;DHT22;3788;49.902;8.590;2023-08-21T03:51:27;22.30;99.90
7494;DHT22;3788;49.902;8.590;2023-08-21T03:53:54;22.30;99.90
7494;DHT22;3788;49.902;8.590;2023-08-21T03:56:20;22.30;99.90
7494;DHT22;3788;49.902;8.590;2023-08-21T03:58:50;22.20;99.90
7494;DHT22;3788;49.902;8.590;2023-08-21T04:01:16;22.20;99.90
7494;DHT22;3788;49.902;8.590;2023-08-21T04:03:43;22.20;99.90
7494;DHT22;3788;49.902;8.590;2023-08-21T04:06:10;22.20;99.90
7494;DHT22;3788;49.902;8.590;2023-08-21T04:08:36;22.20;99.90
7494;DHT22;3788;49.902;8.590;2023-08-21T04:11:03;22.20;99.90
7494;DHT22;3788;49.902;8.590;2023-08-21T04:13:30;22.20;99.90
7494;DHT22;3788;49.902;8.590;2023-08-21T04:15:58;22.20;99.90
7494;DHT22;3788;49.902;8.590;2023-08-21T04:18:25;22.10;99.90
7494;DHT22;3788;49.902;8.590;2023-08-21T04:20:51;22.10;99.90
7494;DHT22;3788;49.902;8.590;2023-08-21T04:23:18;22.10;99.90
7494;DHT22;3788;49.902;8.590;2023-08-21T04:25:45;22.10;99.90
7494;DHT22;3788;49.902;8.590;2023-08-21T04:28:11;22.10;99.90
7494;DHT22;3788;49.902;8.590;2023-08-21T04:30:40;22.10;99.90
7494;DHT22;3788;49.902;8.590;2023-08-21T04:33:07;22.10;99.90
7494;DHT22;3788;49.902;8.590;2023-08-21T04:35:37;22.10;99.90
7494;DHT22;3788;49.902;8.590;2023-08-21T04:38:04;22.10;99.90
7494;DHT22;3788;49.902;8.590;2023-08-21T04:40:30;22.10;99.90
7494;DHT22;3788;49.902;8.590;2023-08-21T04:42:57;22.10;99.90
7494;DHT22;3788;49.902;8.590;2023-08-21T04:45:24;22.10;99.90
7494;DHT22;3788;49.902;8.590;2023-08-21T04:47:50;22.10;99.90
7494;DHT22;3788;49.902;8.590;2023-08-21T04:50:19;22.10;99.90
7494;DHT22;3788;49.902;8.590;2023-08-21T04:52:45;22.10;99.90
7494;DHT22;3788;49.902;8.590;2023-08-21T04:55:12;22.10;99.90
7494;DHT22;3788;49.902;8.590;2023-08-21T04:57:38;22.10;99.90
7494;DHT22;3788;49.902;8.590;2023-08-21T05:00:06;22.10;99.90
7494;DHT22;3788;49.902;8.590;2023-08-21T05:02:34;22.10;99.90
7494;DHT22;3788;49.902;8.590;2023-08-21T05:05:01;22.10;99.90
7494;DHT22;3788;49.902;8.590;2023-08-21T05:07:28;22.10;99.90
7494;DHT22;3788;49.902;8.590;2023-08-21T05:09:59;22.10;99.90
7494;DHT22;3788;49.902;8.590;2023-08-21T05:12:25;22.10;99.90
7494;DHT22;3788;49.902;8.590;2023-08-21T05:14:52;22.20;99.90
7494;DHT22;3788;49.902;8.590;2023-08-21T05:17:19;22.20;99.90
7494;DHT22;3788;49.902;8.590;2023-08-21T05:19:45;22.20;99.90
7494;DHT22;3788;49.902;8.590;2023-08-21T05:22:12;22.20;99.90
7494;DHT22;3788;49.902;8.590;2023-08-21T05:24:40;22.30;99.90
7494;DHT22;3788;49.902;8.590;2023-08-21T05:27:07;22.30;99.90
7494;DHT22;3788;49.902;8.590;2023-08-21T05:29:33;22.30;99.90
7494;DHT22;3788;49.902;8.590;2023-08-21T05:32:01;22.40;99.90
7494;DHT22;3788;49.902;8.590;2023-08-21T05:34:27;22.40;99.90
7494;DHT22;3788;49.902;8.590;2023-08-21T05:36:54;22.50;99.90
7494;DHT22;3788;49.902;8.590;2023-08-21T05:39:20;22.50;99.90
7494;DHT22;3788;49.902;8.590;2023-08-21T05:41:48;22.60;99.90
7494;DHT22;3788;49.902;8.590;2023-08-21T05:44:15;22.60;99.90
7494;DHT22;3788;49.902;8.590;2023-08-21T05:46:42;22.60;99.90
7494;DHT22;3788;49.902;8.590;2023-08-21T05:49:09;22.60;99.90
7494;DHT22;3788;49.902;8.590;2023-08-21T05:51:35;22.70;99.90
7494;DHT22;3788;49.902;8.590;2023-08-21T05:54:02;22.70;99.90
7494;DHT22;3788;49.902;8.590;2023-08-21T05:56:29;22.70;99.90
7494;DHT22;3788;49.902;8.590;2023-08-21T05:58:57;22.70;99.90
7494;DHT22;3788;49.902;8.590;2023-08-21T06:01:23;22.70;99.90
7494;DHT22;3788;49.902;8.590;2023-08-21T06:03:50;22.70;99.90
7494;DHT22;3788;49.902;8.590;2023-08-21T06:06:17;22.80;99.90
7494;DHT22;3788;49.902;8.590;2023-08-21T06:08:43;22.80;99.90
7494;DHT22;3788;49.902;8.590;2023-08-21T06:11:10;22.80;99.90
7494;DHT22;3788;49.902;8.590;2023-08-21T06:13:37;22.80;99.90
7494;DHT22;3788;49.902;8.590;2023-08-21T06:16:05;22.80;99.90
7494;DHT22;3788;49.902;8.590;2023-08-21T06:18:32;22.90;99.90
7494;DHT22;3788;49.902;8.590;2023-08-21T06:20:59;23.00;99.90
7494;DHT22;3788;49.902;8.590;2023-08-21T06:23:25;23.00;99.90
7494;DHT22;3788;49.902;8.590;2023-08-21T06:25:52;23.10;99.90
7494;DHT22;3788;49.902;8.590;2023-08-21T06:28:19;23.10;99.90
7494;DHT22;3788;49.902;8.590;2023-08-21T06:30:45;23.10;99.90
7494;DHT22;3788;49.902;8.590;2023-08-21T06:33:13;23.20;99.90
7494;DHT22;3788;49.902;8.590;2023-08-21T06:35:40;23.20;99.90
7494;DHT22;3788;49.902;8.590;2023-08-21T06:38:07;23.30;99.90
7494;DHT22;3788;49.902;8.590;2023-08-21T06:40:34;23.30;99.90
7494;DHT22;3788;49.902;8.590;2023-08-21T06:43:00;23.40;99.90
7494;DHT22;3788;49.902;8.590;2023-08-21T06:45:29;23.40;99.90
7494;DHT22;3788;49.902;8.590;2023-08-21T06:47:57;23.40;99.90
7494;DHT22;3788;49.902;8.590;2023-08-21T06:50:26;23.40;99.90
7494;DHT22;3788;49.902;8.590;2023-08-21T06:52:52;23.50;99.90
7494;DHT22;3788;49.902;8.590;2023-08-21T06:55:19;23.60;99.90
7494;DHT22;3788;49.902;8.590;2023-08-21T06:57:46;23.60;99.90
7494;DHT22;3788;49.902;8.590;2023-08-21T07:00:13;23.60;99.90
7494;DHT22;3788;49.902;8.590;2023-08-21T07:02:40;23.60;99.90
7494;DHT22;3788;49.902;8.590;2023-08-21T07:05:07;23.70;99.90
7494;DHT22;3788;49.902;8.590;2023-08-21T07:07:38;23.70;99.90
7494;DHT22;3788;49.902;8.590;2023-08-21T07:10:06;23.80;99.90
7494;DHT22;3788;49.902;8.590;2023-08-21T07:12:33;24.00;99.90
7494;DHT22;3788;49.902;8.590;2023-08-21T07:15:00;24.00;99.90
7494;DHT22;3788;49.902;8.590;2023-08-21T07:17:27;24.10;99.90
7494;DHT22;3788;49.902;8.590;2023-08-21T07:19:54;24.10;99.90
7494;DHT22;3788;49.902;8.590;2023-08-21T07:22:20;24.20;99.90
7494;DHT22;3788;49.902;8.590;2023-08-21T07:24:48;24.20;99.90
7494;DHT22;3788;49.902;8.590;2023-08-21T07:27:15;24.30;99.90
7494;DHT22;3788;49.902;8.590;2023-08-21T07:29:42;24.40;99.90
7494;DHT22;3788;49.902;8.590;2023-08-21T07:32:08;24.50;99.90
7494;DHT22;3788;49.902;8.590;2023-08-21T07:34:35;24.60;99.90
7494;DHT22;3788;49.902;8.590;2023-08-21T07:37:02;24.70;99.90
7494;DHT22;3788;49.902;8.590;2023-08-21T07:39:28;24.90;99.90
7494;DHT22;3788;49.902;8.590;2023-08-21T07:41:56;24.90;99.90
7494;DHT22;3788;49.902;8.590;2023-08-21T07:44:23;25.00;99.90
7494;DHT22;3788;49.902;8.590;2023-08-21T07:46:50;25.20;99.90
7494;DHT22;3788;49.902;8.590;2023-08-21T07:49:16;25.30;99.90
7494;DHT22;3788;49.902;8.590;2023-08-21T07:51:43;25.70;99.90
7494;DHT22;3788;49.902;8.590;2023-08-21T07:54:10;26.40;99.90
7494;DHT22;3788;49.902;8.590;2023-08-21T07:56:37;27.40;99.90
7494;DHT22;3788;49.902;8.590;2023-08-21T07:59:07;28.50;99.10
7494;DHT22;3788;49.902;8.590;2023-08-21T08:01:34;29.80;97.40
7494;DHT22;3788;49.902;8.590;2023-08-21T08:04:01;30.80;95.20
7494;DHT22;3788;49.902;8.590;2023-08-21T08:06:28;31.50;93.90
7494;DHT22;3788;49.902;8.590;2023-08-21T08:08:54;32.00;92.50
7494;DHT22;3788;49.902;8.590;2023-08-21T08:11:21;32.40;91.40
7494;DHT22;3788;49.902;8.590;2023-08-21T08:13:48;32.80;90.90
7494;DHT22;3788;49.902;8.590;2023-08-21T08:16:16;33.10;90.30
7494;DHT22;3788;49.902;8.590;2023-08-21T08:18:43;33.30;89.80
7494;DHT22;3788;49.902;8.590;2023-08-21T08:21:09;33.70;88.50
7494;DHT22;3788;49.902;8.590;2023-08-21T08:23:36;33.90;87.30
7494;DHT22;3788;49.902;8.590;2023-08-21T08:26:03;34.10;86.10
7494;DHT22;3788;49.902;8.590;2023-08-21T08:28:30;34.20;85.70
7494;DHT22;3788;49.902;8.590;2023-08-21T08:30:57;34.40;84.70
7494;DHT22;3788;49.902;8.590;2023-08-21T08:33:25;34.50;83.90
7494;DHT22;3788;49.902;8.590;2023-08-21T08:35:52;34.80;83.10
7494;DHT22;3788;49.902;8.590;2023-08-21T08:38:19;35.10;82.30
7494;DHT22;3788;49.902;8.590;2023-08-21T08:40:46;35.50;81.60
7494;DHT22;3788;49.902;8.590;2023-08-21T08:43:13;35.70;80.30
7494;DHT22;3788;49.902;8.590;2023-08-21T08:45:41;36.20;80.00
7494;DHT22;3788;49.902;8.590;2023-08-21T08:48:08;36.80;78.00
7494;DHT22;3788;49.902;8.590;2023-08-21T08:50:37;37.30;75.60
7494;DHT22;3788;49.902;8.590;2023-08-21T08:53:06;37.10;74.40
7494;DHT22;3788;49.902;8.590;2023-08-21T08:55:33;37.10;74.40
7494;DHT22;3788;49.902;8.590;2023-08-21T08:58:00;37.10;74.20
7494;DHT22;3788;49.902;8.590;2023-08-21T09:00:27;37.30;74.00
7494;DHT22;3788;49.902;8.590;2023-08-21T09:02:54;37.40;73.70
7494;DHT22;3788;49.902;8.590;2023-08-21T09:05:21;37.60;73.50
7494;DHT22;3788;49.902;8.590;2023-08-21T09:08:02;37.80;73.00
7494;DHT22;3788;49.902;8.590;2023-08-21T09:10:29;37.80;72.50
7494;DHT22;3788;49.902;8.590;2023-08-21T09:12:56;37.80;71.90
7494;DHT22;3788;49.902;8.590;2023-08-21T09:15:27;37.70;71.70
7494;DHT22;3788;49.902;8.590;2023-08-21T09:17:55;37.50;71.30
7494;DHT22;3788;49.902;8.590;2023-08-21T09:20:21;37.50;71.20
7494;DHT22;3788;49.902;8.590;2023-08-21T09:22:53;37.70;70.70
7494;DHT22;3788;49.902;8.590;2023-08-21T09:25:23;38.00;70.40
7494;DHT22;3788;49.902;8.590;2023-08-21T09:27:52;37.90;69.20
7494;DHT22;3788;49.902;8.590;2023-08-21T09:30:19;37.70;69.60
7494;DHT22;3788;49.902;8.590;2023-08-21T09:32:53;37.50;69.30
7494;DHT22;3788;49.902;8.590;2023-08-21T09:35:20;37.50;69.80
7494;DHT22;3788;49.902;8.590;2023-08-21T09:37:47;37.40;69.00
7494;DHT22;3788;49.902;8.590;2023-08-21T09:40:15;37.40;68.70
7494;DHT22;3788;49.902;8.590;2023-08-21T09:42:43;37.50;68.80
7494;DHT22;3788;49.902;8.590;2023-08-21T09:45:10;37.70;68.60
7494;DHT22;3788;49.902;8.590;2023-08-21T09:47:37;37.90;68.00
7494;DHT22;3788;49.902;8.590;2023-08-21T09:50:06;37.90;67.70
7494;DHT22;3788;49.902;8.590;2023-08-21T09:52:33;37.90;67.30
7494;DHT22;3788;49.902;8.590;2023-08-21T09:55:01;37.80;67.50
7494;DHT22;3788;49.902;8.590;2023-08-21T09:57:31;37.70;67.40
7494;DHT22;3788;49.902;8.590;2023-08-21T10:00:02;37.50;67.20
7494;DHT22;3788;49.902;8.590;2023-08-21T10:02:42;37.40;67.70
7494;DHT22;3788;49.902;8.590;2023-08-21T10:05:11;37.20;67.80
7494;DHT22;3788;49.902;8.590;2023-08-21T10:07:39;37.10;68.00
7494;DHT22;3788;49.902;8.590;2023-08-21T10:10:07;37.10;68.00
7494;DHT22;3788;49.902;8.590;2023-08-21T10:12:34;37.00;68.20
7494;DHT22;3788;49.902;8.590;2023-08-21T10:15:02;36.80;68.10
7494;DHT22;3788;49.902;8.590;2023-08-21T10:17:30;36.40;68.50
7494;DHT22;3788;49.902;8.590;2023-08-21T10:20:02;36.30;69.50
7494;DHT22;3788;49.902;8.590;2023-08-21T10:22:38;36.20;69.00
7494;DHT22;3788;49.902;8.590;2023-08-21T10:25:14;36.10;69.30
7494;DHT22;3788;49.902;8.590;2023-08-21T10:27:41;36.10;69.90
7494;DHT22;3788;49.902;8.590;2023-08-21T10:30:14;36.00;70.20
7494;DHT22;3788;49.902;8.590;2023-08-21T10:32:45;36.00;70.10
7494;DHT22;3788;49.902;8.590;2023-08-21T10:35:14;35.90;69.90
7494;DHT22;3788;49.902;8.590;2023-08-21T10:38:08;35.70;70.00
7494;DHT22;3788;49.902;8.590;2023-08-21T10:40:36;35.70;69.80
7494;DHT22;3788;49.902;8.590;2023-08-21T10:43:04;35.70;69.70
7494;DHT22;3788;49.902;8.590;2023-08-21T10:45:32;35.70;69.60
7494;DHT22;3788;49.902;8.590;2023-08-21T10:47:59;35.60;69.60
7494;DHT22;3788;49.902;8.590;2023-08-21T10:50:26;35.40;68.90
7494;DHT22;3788;49.902;8.590;2023-08-21T10:52:53;35.30;69.80
7494;DHT22;3788;49.902;8.590;2023-08-21T10:55:20;35.20;69.30
7494;DHT22;3788;49.902;8.590;2023-08-21T10:57:48;35.20;69.00
7494;DHT22;3788;49.902;8.590;2023-08-21T11:00:16;35.10;69.10
7494;DHT22;3788;49.902;8.590;2023-08-21T11:02:45;34.90;67.90
7494;DHT22;3788;49.902;8.590;2023-08-21T11:05:13;34.60;67.30
7494;DHT22;3788;49.902;8.590;2023-08-21T11:07:41;34.40;65.20
7494;DHT22;3788;49.902;8.590;2023-08-21T11:10:11;34.30;65.40
7494;DHT22;3788;49.902;8.590;2023-08-21T11:12:39;34.20;66.70
7494;DHT22;3788;49.902;8.590;2023-08-21T11:15:15;34.20;67.20
7494;DHT22;3788;49.902;8.590;2023-08-21T11:17:41;34.20;65.00
7494;DHT22;3788;49.902;8.590;2023-08-21T11:20:10;34.10;63.90
7494;DHT22;3788;49.902;8.590;2023-08-21T11:22:37;34.00;62.40
7494;DHT22;3788;49.902;8.590;2023-08-21T11:25:04;33.90;62.10
7494;DHT22;3788;49.902;8.590;2023-08-21T11:27:31;33.90;62.60
7494;DHT22;3788;49.902;8.590;2023-08-21T11:29:58;33.80;62.50
7494;DHT22;3788;49.902;8.590;2023-08-21T11:32:24;33.70;62.70
7494;DHT22;3788;49.902;8.590;2023-08-21T11:34:52;33.60;62.70
7494;DHT22;3788;49.902;8.590;2023-08-21T11:37:22;33.50;63.40
7494;DHT22;3788;49.902;8.590;2023-08-21T11:39:50;33.40;63.60
7494;DHT22;3788;49.902;8.590;2023-08-21T11:42:18;33.30;63.70
7494;DHT22;3788;49.902;8.590;2023-08-21T11:44:50;33.30;63.90
7494;DHT22;3788;49.902;8.590;2023-08-21T11:47:18;33.30;63.30
7494;DHT22;3788;49.902;8.590;2023-08-21T11:49:46;33.20;62.80
7494;DHT22;3788;49.902;8.590;2023-08-21T11:52:18;33.10;63.60
7494;DHT22;3788;49.902;8.590;2023-08-21T11:54:48;33.00;63.80
7494;DHT22;3788;49.902;8.590;2023-08-21T11:57:15;33.00;63.30
7494;DHT22;3788;49.902;8.590;2023-08-21T11:59:42;32.90;62.80
7494;DHT22;3788;49.902;8.590;2023-08-21T12:02:10;32.80;62.60
7494;DHT22;3788;49.902;8.590;2023-08-21T12:04:37;32.80;62.70
7494;DHT22;3788;49.902;8.590;2023-08-21T12:07:04;32.80;62.90
7494;DHT22;3788;49.902;8.590;2023-08-21T12:09:31;32.80;62.80
7494;DHT22;3788;49.902;8.590;2023-08-21T12:11:59;32.80;62.70
7494;DHT22;3788;49.902;8.590;2023-08-21T12:14:27;32.80;62.40
7494;DHT22;3788;49.902;8.590;2023-08-21T12:16:54;32.80;62.40
7494;DHT22;3788;49.902;8.590;2023-08-21T12:19:22;32.80;62.50
7494;DHT22;3788;49.902;8.590;2023-08-21T12:21:49;32.70;62.60
7494;DHT22;3788;49.902;8.590;2023-08-21T12:24:16;32.50;62.70
7494;DHT22;3788;49.902;8.590;2023-08-21T12:26:42;32.50;62.70
7494;DHT22;3788;49.902;8.590;2023-08-21T12:29:10;32.50;62.90
7494;DHT22;3788;49.902;8.590;2023-08-21T12:31:37;32.50;62.70
7494;DHT22;3788;49.902;8.590;2023-08-21T12:34:04;32.50;63.00
7494;DHT22;3788;49.902;8.590;2023-08-21T12:36:30;32.40;63.20
7494;DHT22;3788;49.902;8.590;2023-08-21T12:38:57;32.40;63.30
7494;DHT22;3788;49.902;8.590;2023-08-21T12:41:24;32.40;63.50
7494;DHT22;3788;49.902;8.590;2023-08-21T12:43:50;32.40;63.90
7494;DHT22;3788;49.902;8.590;2023-08-21T12:46:18;32.30;63.90
7494;DHT22;3788;49.902;8.590;2023-08-21T12:48:45;32.40;63.70
7494;DHT22;3788;49.902;8.590;2023-08-21T12:51:12;32.40;62.90
7494;DHT22;3788;49.902;8.590;2023-08-21T12:53:38;32.50;62.20
7494;DHT22;3788;49.902;8.590;2023-08-21T12:56:05;32.60;61.90
7494;DHT22;3788;49.902;8.590;2023-08-21T12:58:32;32.60;61.50
7494;DHT22;3788;49.902;8.590;2023-08-21T13:00:59;32.50;61.30
7494;DHT22;3788;49.902;8.590;2023-08-21T13:03:27;32.50;61.20
7494;DHT22;3788;49.902;8.590;2023-08-21T13:05:53;32.40;60.90
7494;DHT22;3788;49.902;8.590;2023-08-21T13:08:21;32.50;61.00
7494;DHT22;3788;49.902;8.590;2023-08-21T13:10:47;32.50;60.90
7494;DHT22;3788;49.902;8.590;2023-08-21T13:13:14;32.60;59.00
7494;DHT22;3788;49.902;8.590;2023-08-21T13:15:41;32.60;58.10
7494;DHT22;3788;49.902;8.590;2023-08-21T13:18:10;32.60;58.20
7494;DHT22;3788;49.902;8.590;2023-08-21T13:20:38;32.60;58.50
7494;DHT22;3788;49.902;8.590;2023-08-21T13:23:04;32.60;58.40
7494;DHT22;3788;49.902;8.590;2023-08-21T13:25:31;32.60;58.50
7494;DHT22;3788;49.902;8.590;2023-08-21T13:28:01;32.70;58.50
7494;DHT22;3788;49.902;8.590;2023-08-21T13:30:29;32.80;58.50
7494;DHT22;3788;49.902;8.590;2023-08-21T13:32:55;32.80;59.20
7494;DHT22;3788;49.902;8.590;2023-08-21T13:35:22;32.80;59.50
7494;DHT22;3788;49.902;8.590;2023-08-21T13:37:51;32.80;59.60
7494;DHT22;3788;49.902;8.590;2023-08-21T13:40:18;32.80;59.00
7494;DHT22;3788;49.902;8.590;2023-08-21T13:42:46;32.90;59.00
7494;DHT22;3788;49.902;8.590;2023-08-21T13:45:14;32.90;59.00
7494;DHT22;3788;49.902;8.590;2023-08-21T13:47:42;32.90;59.00
7494;DHT22;3788;49.902;8.590;2023-08-21T13:50:10;32.90;59.20
7494;DHT22;3788;49.902;8.590;2023-08-21T13:52:37;32.90;59.20
7494;DHT22;3788;49.902;8.590;2023-08-21T13:55:07;33.00;59.40
7494;DHT22;3788;49.902;8.590;2023-08-21T13:57:34;32.90;59.40
7494;DHT22;3788;49.902;8.590;2023-08-21T14:00:02;32.90;59.50
7494;DHT22;3788;49.902;8.590;2023-08-21T14:02:32;32.90;59.40
7494;DHT22;3788;49.902;8.590;2023-08-21T14:04:59;32.90;59.00
7494;DHT22;3788;49.902;8.590;2023-08-21T14:07:26;32.90;59.30
7494;DHT22;3788;49.902;8.590;2023-08-21T14:09:52;33.00;59.50
7494;DHT22;3788;49.902;8.590;2023-08-21T14:12:20;33.00;59.40
7494;DHT22;3788;49.902;8.590;2023-08-21T14:14:47;33.00;59.50
7494;DHT22;3788;49.902;8.590;2023-08-21T14:17:14;33.00;59.60
7494;DHT22;3788;49.902;8.590;2023-08-21T14:19:41;32.90;59.80
7494;DHT22;3788;49.902;8.590;2023-08-21T14:22:07;32.90;59.80
7494;DHT22;3788;49.902;8.590;2023-08-21T14:24:34;32.80;59.80
7494;DHT22;3788;49.902;8.590;2023-08-21T14:27:01;32.90;59.60
7494;DHT22;3788;49.902;8.590;2023-08-21T14:29:30;32.90;59.60
7494;DHT22;3788;49.902;8.590;2023-08-21T14:31:58;32.90;59.50
7494;DHT22;3788;49.902;8.590;2023-08-21T14:34:25;32.90;59.70
7494;DHT22;3788;49.902;8.590;2023-08-21T14:36:52;32.80;60.00
7494;DHT22;3788;49.902;8.590;2023-08-21T14:39:19;32.80;60.10
7494;DHT22;3788;49.902;8.590;2023-08-21T14:41:46;32.70;60.40
7494;DHT22;3788;49.902;8.590;2023-08-21T14:44:13;32.60;60.60
7494;DHT22;3788;49.902;8.590;2023-08-21T14:46:42;32.60;61.00
7494;DHT22;3788;49.902;8.590;2023-08-21T14:49:09;32.50;61.10
7494;DHT22;3788;49.902;8.590;2023-08-21T14:51:35;32.40;61.10
7494;DHT22;3788;49.902;8.590;2023-08-21T14:54:03;32.40;61.30
7494;DHT22;3788;49.902;8.590;2023-08-21T14:56:29;32.40;61.80
7494;DHT22;3788;49.902;8.590;2023-08-21T14:58:56;32.30;62.20
7494;DHT22;3788;49.902;8.590;2023-08-21T15:01:23;32.30;62.70
7494;DHT22;3788;49.902;8.590;2023-08-21T15:03:51;32.30;62.70
7494;DHT22;3788;49.902;8.590;2023-08-21T15:06:18;32.40;62.70
7494;DHT22;3788;49.902;8.590;2023-08-21T15:08:45;32.30;62.80
7494;DHT22;3788;49.902;8.590;2023-08-21T15:11:12;32.30;62.60
7494;DHT22;3788;49.902;8.590;2023-08-21T15:13:39;32.30;62.80
7494;DHT22;3788;49.902;8.590;2023-08-21T15:16:06;32.40;62.90
7494;DHT22;3788;49.902;8.590;2023-08-21T15:18:33;32.40;62.70
7494;DHT22;3788;49.902;8.590;2023-08-21T15:21:01;32.40;63.40
7494;DHT22;3788;49.902;8.590;2023-08-21T15:23:28;32.40;63.70
7494;DHT22;3788;49.902;8.590;2023-08-21T15:25:54;32.30;64.20
7494;DHT22;3788;49.902;8.590;2023-08-21T15:28:21;32.20;64.00
7494;DHT22;3788;49.902;8.590;2023-08-21T15:30:48;32.20;63.80
7494;DHT22;3788;49.902;8.590;2023-08-21T15:33:14;32.10;63.90
7494;DHT22;3788;49.902;8.590;2023-08-21T15:35:41;32.10;64.40
7494;DHT22;3788;49.902;8.590;2023-08-21T15:38:09;32.00;64.60
7494;DHT22;3788;49.902;8.590;2023-08-21T15:40:36;32.00;64.40
7494;DHT22;3788;49.902;8.590;2023-08-21T15:43:04;32.00;64.60
7494;DHT22;3788;49.902;8.590;2023-08-21T15:45:32;32.10;64.90
7494;DHT22;3788;49.902;8.590;2023-08-21T15:47:59;32.10;64.90
7494;DHT22;3788;49.902;8.590;2023-08-21T15:50:26;32.20;64.90
7494;DHT22;3788;49.902;8.590;2023-08-21T15:52:52;32.10;64.80
7494;DHT22;3788;49.902;8.590;2023-08-21T15:55:20;32.10;64.90
7494;DHT22;3788;49.902;8.590;2023-08-21T15:57:47;32.10;64.70
7494;DHT22;3788;49.902;8.590;2023-08-21T16:00:14;32.00;65.10
7494;DHT22;3788;49.902;8.590;2023-08-21T16:02:40;32.00;65.20